Time;durP1;ratioP1;P1;durP2;ratioP2;P2;SDS_P1;SDS_P2;PMS_P1;PMS_P2;Temp;Humidity;BMP_temperature;BMP_pressure;BME280_temperature;BME280_humidity;BME280_pressure;Samples;Min_cycle;Max_cycle;Signal;HPM_P1;HPM_P2
2022/04/28 00:00:19;;;;;;;4.57;3.15;;;;;;;;;;5035941;28;20171;-65
2022/04/28 00:02:45;;;;;;;9.15;3.72;;;;;;;;;;5041178;28;20033;-65
2022/04/28 00:05:11;;;;;;;5.80;3.47;;;;;;;;;;5039474;28;20203;-65
2022/04/28 00:07:38;;;;;;;4.45;2.83;;;;;;;;;;5043923;28;20438;-65
2022/04/28 00:10:06;;;;;;;5.38;3.50;;;;;;;;;;5037178;28;20030;-65
2022/04/28 00:12:32;;;;;;;3.05;2.75;;;;;;;;;;5036440;28;20033;-65
2022/04/28 00:14:58;;;;;;;5.00;3.08;;;;;;;;;;5038089;28;20037;-66
2022/04/28 00:17:23;;;;;;;5.50;2.88;;;;;;;;;;5034980;28;20041;-66
2022/04/28 00:19:49;;;;;;;5.28;3.22;;;;;;;;;;5040140;28;20029;-66
2022/04/28 00:22:16;;;;;;;4.13;3.20;;;;;;;;;;5039827;28;20025;-65
2022/04/28 00:24:43;;;;;;;2.97;2.70;;;;;;;;;;5040023;28;20039;-65
2022/04/28 00:27:09;;;;;;;4.93;2.85;;;;;;;;;;5038198;28;20514;-66
2022/04/28 00:29:35;;;;;;;5.30;2.92;;;;;;;;;;5040212;28;20026;-65
2022/04/28 00:32:01;;;;;;;3.83;2.85;;;;;;;;;;5045235;28;20032;-65
2022/04/28 00:34:27;;;;;;;4.30;3.00;;;;;;;;;;5039990;28;20081;-65
2022/04/28 00:36:53;;;;;;;5.13;3.03;;;;;;;;;;5040496;28;20045;-65
2022/04/28 00:39:19;;;;;;;4.85;2.92;;;;;;;;;;5037578;28;20025;-65
2022/04/28 00:41:44;;;;;;;5.30;3.03;;;;;;;;;;5036855;28;20100;-65
2022/04/28 00:44:11;;;;;;;3.28;2.70;;;;;;;;;;5038261;28;20413;-66
2022/04/28 00:46:38;;;;;;;3.67;3.30;;;;;;;;;;5040361;28;20071;-66
2022/04/28 00:51:49;;;;;;;4.40;2.80;;;;;;;;;;5038122;28;20029;-65
2022/04/28 00:54:15;;;;;;;7.00;3.20;;;;;;;;;;5040081;28;20069;-65
2022/04/28 00:56:42;;;;;;;5.15;2.80;;;;;;;;;;5042550;28;20065;-65
2022/04/28 00:59:09;;;;;;;4.07;3.45;;;;;;;;;;5038672;28;20037;-65
2022/04/28 01:01:35;;;;;;;7.70;3.38;;;;;;;;;;5041958;28;20033;-66
2022/04/28 01:04:01;;;;;;;9.05;3.58;;;;;;;;;;5038894;28;20367;-65
2022/04/28 01:06:27;;;;;;;4.32;3.30;;;;;;;;;;5039312;28;20481;-66
2022/04/28 01:08:55;;;;;;;8.00;3.70;;;;;;;;;;5038731;28;20029;-65
2022/04/28 01:11:21;;;;;;;5.35;3.28;;;;;;;;;;5040767;28;20036;-65
2022/04/28 01:13:47;;;;;;;4.70;3.63;;;;;;;;;;5044957;28;20043;-65
2022/04/28 01:16:13;;;;;;;6.72;3.88;;;;;;;;;;5046981;28;20028;-66
2022/04/28 01:18:40;;;;;;;6.60;3.88;;;;;;;;;;5046261;28;20029;-65
2022/04/28 01:21:07;;;;;;;6.15;3.28;;;;;;;;;;5041188;28;20501;-65
2022/04/28 01:23:33;;;;;;;6.30;3.50;;;;;;;;;;5041001;28;20196;-66
2022/04/28 01:26:00;;;;;;;9.85;3.88;;;;;;;;;;5039413;28;20032;-65
2022/04/28 01:28:32;;;;;;;8.48;3.88;;;;;;;;;;5040108;28;20075;-65
2022/04/28 01:31:05;;;;;;;6.43;3.45;;;;;;;;;;5034867;28;20037;-65
2022/04/28 01:33:31;;;;;;;;;;;;;;;;;;5039398;28;20033;-65
2022/04/28 01:35:56;;;;;;;10.40;4.25;;;;;;;;;;5038186;28;19920;-65
2022/04/28 01:38:22;;;;;;;8.07;3.67;;;;;;;;;;5038228;28;20029;-65
2022/04/28 01:40:48;;;;;;;8.23;4.00;;;;;;;;;;5041662;28;20025;-65
2022/04/28 01:43:14;;;;;;;5.63;3.65;;;;;;;;;;5039631;28;20029;-65
2022/04/28 01:45:39;;;;;;;4.95;3.65;;;;;;;;;;5044551;28;20025;-65
2022/04/28 01:48:05;;;;;;;5.50;3.70;;;;;;;;;;5040637;28;20028;-65
2022/04/28 01:50:30;;;;;;;8.27;3.75;;;;;;;;;;5045648;28;20091;-65
2022/04/28 01:55:42;;;;;;;6.05;4.05;;;;;;;;;;5016651;28;20046;-65
2022/04/28 01:58:08;;;;;;;6.97;3.40;;;;;;;;;;5010905;28;20041;-65
2022/04/28 02:00:34;;;;;;;3.65;3.30;;;;;;;;;;5016002;28;20064;-65
2022/04/28 02:03:00;;;;;;;4.00;3.30;;;;;;;;;;5011040;28;20120;-65
2022/04/28 02:05:26;;;;;;;7.30;4.00;;;;;;;;;;5017224;28;20030;-66
2022/04/28 02:07:51;;;;;;;7.93;3.95;;;;;;;;;;5013319;28;20050;-65
2022/04/28 02:10:17;;;;;;;8.30;3.72;;;;;;;;;;5017055;28;20032;-65
2022/04/28 02:12:43;;;;;;;6.38;3.60;;;;;;;;;;5013362;28;20438;-65
2022/04/28 02:15:09;;;;;;;9.57;4.00;;;;;;;;;;5011940;28;20360;-65
2022/04/28 02:17:37;;;;;;;4.53;3.78;;;;;;;;;;5018553;28;20081;-65
2022/04/28 02:20:11;;;;;;;5.88;4.10;;;;;;;;;;5015457;28;20037;-65
2022/04/28 02:22:37;;;;;;;6.20;3.75;;;;;;;;;;5019612;28;20060;-65
2022/04/28 02:25:06;;;;;;;8.93;3.80;;;;;;;;;;5012261;28;20069;-65
2022/04/28 02:27:32;;;;;;;9.85;3.75;;;;;;;;;;5011352;28;20080;-65
2022/04/28 02:29:58;;;;;;;10.52;3.95;;;;;;;;;;5016186;28;20477;-65
2022/04/28 02:32:23;;;;;;;9.52;3.40;;;;;;;;;;5019275;28;20124;-65
2022/04/28 02:34:49;;;;;;;5.03;3.30;;;;;;;;;;5039214;28;20044;-65
2022/04/28 02:37:15;;;;;;;5.05;3.15;;;;;;;;;;5040377;28;20104;-65
2022/04/28 02:39:41;;;;;;;3.92;3.17;;;;;;;;;;5042531;28;20124;-65
2022/04/28 02:42:07;;;;;;;4.70;3.22;;;;;;;;;;5036028;28;20480;-65
2022/04/28 02:44:33;;;;;;;5.47;3.50;;;;;;;;;;5034718;28;20083;-65
2022/04/28 02:46:59;;;;;;;6.85;3.28;;;;;;;;;;5037165;28;20045;-65
2022/04/28 02:49:24;;;;;;;9.75;3.70;;;;;;;;;;5044111;28;20029;-65
2022/04/28 02:51:50;;;;;;;6.57;3.92;;;;;;;;;;5036146;28;20018;-65
2022/04/28 02:54:16;;;;;;;5.80;3.63;;;;;;;;;;5038768;28;20099;-64
2022/04/28 02:56:42;;;;;;;4.57;3.10;;;;;;;;;;5037140;28;20029;-65
2022/04/28 02:59:08;;;;;;;5.18;3.15;;;;;;;;;;5037431;28;20029;-65
2022/04/28 03:01:34;;;;;;;7.47;3.60;;;;;;;;;;5041097;28;20029;-65
2022/04/28 03:04:00;;;;;;;4.88;3.25;;;;;;;;;;5035976;28;20033;-64
2022/04/28 03:11:54;;;;;;;7.63;3.50;;;;;;;;;;5035222;28;20394;-66
2022/04/28 03:14:21;;;;;;;6.32;3.80;;;;;;;;;;5043325;28;20031;-65
2022/04/28 03:16:47;;;;;;;4.97;3.55;;;;;;;;;;5034867;28;20055;-65
2022/04/28 03:19:13;;;;;;;4.40;3.30;;;;;;;;;;5042159;28;20501;-65
2022/04/28 03:21:38;;;;;;;5.80;3.60;;;;;;;;;;5039533;28;20033;-65
2022/04/28 03:24:04;;;;;;;5.25;3.45;;;;;;;;;;5036027;28;20033;-65
2022/04/28 03:26:31;;;;;;;5.95;3.65;;;;;;;;;;5038759;28;20028;-65
2022/04/28 03:28:57;;;;;;;8.68;3.60;;;;;;;;;;5034490;28;20025;-65
2022/04/28 03:31:23;;;;;;;4.38;3.80;;;;;;;;;;5032327;28;20026;-65
2022/04/28 03:33:48;;;;;;;5.97;3.58;;;;;;;;;;5037255;28;20107;-65
2022/04/28 03:38:58;;;;;;;4.80;3.65;;;;;;;;;;5039258;28;20065;-65
2022/04/28 03:41:24;;;;;;;11.20;4.00;;;;;;;;;;5037448;28;20118;-65
2022/04/28 03:43:51;;;;;;;6.70;3.60;;;;;;;;;;5036684;28;20033;-65
2022/04/28 03:46:18;;;;;;;5.82;3.55;;;;;;;;;;5033516;28;20033;-65
2022/04/28 03:48:44;;;;;;;6.80;3.85;;;;;;;;;;5037303;28;20034;-65
2022/04/28 03:51:10;;;;;;;8.38;5.07;;;;;;;;;;5038232;28;20126;-65
2022/04/28 03:53:37;;;;;;;5.32;3.55;;;;;;;;;;5034822;28;20130;-64
2022/04/28 03:56:03;;;;;;;5.82;3.75;;;;;;;;;;5037884;28;20029;-64
2022/04/28 03:58:29;;;;;;;6.50;4.10;;;;;;;;;;5040755;28;20496;-65
2022/04/28 04:00:54;;;;;;;6.60;3.80;;;;;;;;;;5036580;28;20105;-64
2022/04/28 04:03:20;;;;;;;4.30;3.90;;;;;;;;;;5043328;28;20029;-65
2022/04/28 04:05:47;;;;;;;5.65;3.63;;;;;;;;;;5038936;28;20397;-65
2022/04/28 04:08:13;;;;;;;6.07;3.72;;;;;;;;;;5039203;28;20025;-65
2022/04/28 04:10:39;;;;;;;8.40;3.78;;;;;;;;;;5047928;28;20029;-65
2022/04/28 04:13:05;;;;;;;5.93;3.60;;;;;;;;;;5042006;28;20037;-65
2022/04/28 04:15:32;;;;;;;7.70;4.13;;;;;;;;;;5043851;28;20033;-65
2022/04/28 04:17:58;;;;;;;5.82;4.15;;;;;;;;;;5038301;28;20508;-65
2022/04/28 04:20:24;;;;;;;9.27;4.10;;;;;;;;;;5041828;28;20033;-65
2022/04/28 04:22:50;;;;;;;11.50;4.15;;;;;;;;;;5041335;28;20028;-65
2022/04/28 04:25:15;;;;;;;9.52;3.58;;;;;;;;;;5042693;28;20029;-65
2022/04/28 04:27:41;;;;;;;10.45;4.20;;;;;;;;;;5043226;28;20037;-65
2022/04/28 04:32:52;;;;;;;5.68;3.92;;;;;;;;;;5040943;28;20465;-65
2022/04/28 04:35:18;;;;;;;7.22;4.20;;;;;;;;;;5039674;28;20119;-65
2022/04/28 04:37:44;;;;;;;6.00;4.50;;;;;;;;;;5042709;28;20107;-65
2022/04/28 04:40:13;;;;;;;6.78;3.45;;;;;;;;;;5043151;28;20053;-65
2022/04/28 04:42:39;;;;;;;9.95;3.90;;;;;;;;;;5040887;28;20104;-62
2022/04/28 04:45:09;;;;;;;5.57;3.80;;;;;;;;;;5042050;28;20119;-65
2022/04/28 04:47:35;;;;;;;8.45;3.90;;;;;;;;;;5044485;28;20033;-65
2022/04/28 04:50:02;;;;;;;4.70;4.20;;;;;;;;;;5040293;28;20980;-64
2022/04/28 04:52:28;;;;;;;10.40;4.18;;;;;;;;;;5045560;28;20036;-65
2022/04/28 04:54:54;;;;;;;5.13;4.18;;;;;;;;;;5041339;28;20094;-65
2022/04/28 04:57:20;;;;;;;4.53;3.55;;;;;;;;;;5044047;28;20039;-65
2022/04/28 04:59:45;;;;;;;4.15;3.67;;;;;;;;;;5041099;28;20077;-65
2022/04/28 05:02:11;;;;;;;7.65;3.90;;;;;;;;;;5039609;28;20068;-65
2022/04/28 05:04:37;;;;;;;8.63;4.68;;;;;;;;;;5042405;28;20065;-64
2022/04/28 05:07:03;;;;;;;5.32;3.47;;;;;;;;;;5039614;28;20075;-65
2022/04/28 05:09:28;;;;;;;5.40;3.97;;;;;;;;;;5044439;28;20036;-65
2022/04/28 05:11:54;;;;;;;4.07;3.35;;;;;;;;;;5041277;28;20037;-65
2022/04/28 05:14:20;;;;;;;3.42;3.15;;;;;;;;;;5035540;28;20135;-64
2022/04/28 05:16:46;;;;;;;6.78;3.88;;;;;;;;;;5040198;28;20044;-65
2022/04/28 05:19:11;;;;;;;6.10;3.78;;;;;;;;;;5038737;28;20477;-64
2022/04/28 05:21:37;;;;;;;4.30;3.25;;;;;;;;;;5038789;28;20083;-65
2022/04/28 05:24:03;;;;;;;7.28;3.80;;;;;;;;;;5035936;28;20041;-65
2022/04/28 05:26:29;;;;;;;8.05;3.65;;;;;;;;;;5037792;28;20065;-65
2022/04/28 05:28:54;;;;;;;7.70;3.65;;;;;;;;;;5036620;28;20061;-65
2022/04/28 05:31:20;;;;;;;8.50;3.92;;;;;;;;;;5040712;28;20060;-65
2022/04/28 05:33:46;;;;;;;3.63;3.22;;;;;;;;;;5038536;28;20079;-65
2022/04/28 05:36:14;;;;;;;4.13;3.67;;;;;;;;;;5038401;28;20041;-64
2022/04/28 05:38:39;;;;;;;8.27;3.58;;;;;;;;;;5040499;28;20739;-63
2022/04/28 05:41:06;;;;;;;6.70;4.45;;;;;;;;;;5039861;28;20041;-64
2022/04/28 05:46:21;;;;;;;7.28;3.88;;;;;;;;;;5041534;28;20132;-64
2022/04/28 05:48:47;;;;;;;9.07;3.70;;;;;;;;;;5038592;28;20518;-64
2022/04/28 05:51:13;;;;;;;5.88;3.60;;;;;;;;;;5036542;28;20052;-64
2022/04/28 05:53:39;;;;;;;4.43;3.00;;;;;;;;;;4992091;28;1316243;-64
2022/04/28 05:56:05;;;;;;;7.20;3.90;;;;;;;;;;5039523;28;20068;-64
2022/04/28 05:58:32;;;;;;;9.75;4.43;;;;;;;;;;5052498;28;20036;-64
2022/04/28 06:00:59;;;;;;;11.48;3.50;;;;;;;;;;5042998;28;20067;-64
2022/04/28 06:03:25;;;;;;;10.27;3.53;;;;;;;;;;5039406;28;20167;-65
2022/04/28 06:05:51;;;;;;;6.68;3.42;;;;;;;;;;5039379;28;20112;-64
2022/04/28 06:08:17;;;;;;;7.97;3.60;;;;;;;;;;5040373;28;20035;-64
2022/04/28 06:10:42;;;;;;;10.45;4.30;;;;;;;;;;5041317;28;20025;-65
2022/04/28 06:13:08;;;;;;;9.27;3.90;;;;;;;;;;5043249;28;20389;-64
2022/04/28 06:15:34;;;;;;;4.35;3.13;;;;;;;;;;5040064;28;20104;-64
2022/04/28 06:17:59;;;;;;;10.10;3.50;;;;;;;;;;5039753;28;20065;-64
2022/04/28 06:20:25;;;;;;;6.88;3.22;;;;;;;;;;5039601;28;20026;-64
2022/04/28 06:22:51;;;;;;;6.80;3.72;;;;;;;;;;5043167;28;20433;-64
2022/04/28 06:25:17;;;;;;;8.20;3.80;;;;;;;;;;5039959;28;20065;-64
2022/04/28 06:27:43;;;;;;;9.13;3.55;;;;;;;;;;5037653;28;20088;-65
2022/04/28 06:30:09;;;;;;;5.72;3.33;;;;;;;;;;5040547;28;20036;-64
2022/04/28 06:32:35;;;;;;;3.55;2.90;;;;;;;;;;5035794;28;20104;-65
2022/04/28 06:35:02;;;;;;;7.10;2.80;;;;;;;;;;5040396;28;20064;-65
2022/04/28 06:37:28;;;;;;;4.80;3.25;;;;;;;;;;5039115;28;20033;-65
2022/04/28 06:39:54;;;;;;;12.60;3.60;;;;;;;;;;5040274;28;20029;-65
2022/04/28 06:42:20;;;;;;;6.32;3.40;;;;;;;;;;5040044;28;20470;-65
2022/04/28 06:44:46;;;;;;;8.30;3.92;;;;;;;;;;5039920;28;20029;-65
2022/04/28 06:47:12;;;;;;;5.35;2.83;;;;;;;;;;5033358;28;20509;-65
2022/04/28 06:49:37;;;;;;;5.05;3.22;;;;;;;;;;5036332;28;20112;-65
2022/04/28 06:52:03;;;;;;;3.83;2.90;;;;;;;;;;5035371;28;20033;-64
2022/04/28 06:54:29;;;;;;;4.00;2.92;;;;;;;;;;5075890;28;20053;-65
2022/04/28 06:56:55;;;;;;;4.55;2.95;;;;;;;;;;5036296;28;20047;-65
2022/04/28 06:59:20;;;;;;;3.33;2.38;;;;;;;;;;5033110;28;20128;-64
2022/04/28 07:01:47;;;;;;;7.80;3.25;;;;;;;;;;5037043;28;20033;-65
2022/04/28 07:04:12;;;;;;;5.30;3.30;;;;;;;;;;5037165;28;20543;-65
2022/04/28 07:06:38;;;;;;;11.00;3.25;;;;;;;;;;5038105;28;20037;-65
2022/04/28 07:09:04;;;;;;;7.28;3.25;;;;;;;;;;5036618;28;20113;-65
2022/04/28 07:11:29;;;;;;;6.35;3.17;;;;;;;;;;5042405;28;20106;-65
2022/04/28 07:13:55;;;;;;;12.35;3.30;;;;;;;;;;5034617;28;20037;-65
2022/04/28 07:16:21;;;;;;;5.95;3.13;;;;;;;;;;5037307;28;20034;-65
2022/04/28 07:18:46;;;;;;;5.75;3.30;;;;;;;;;;5041184;28;20037;-65
2022/04/28 07:21:12;;;;;;;4.82;2.88;;;;;;;;;;5036531;28;20036;-65
2022/04/28 07:23:38;;;;;;;7.47;2.97;;;;;;;;;;5033976;28;20398;-65
2022/04/28 07:26:04;;;;;;;7.50;3.17;;;;;;;;;;5042309;28;20033;-64
2022/04/28 07:28:29;;;;;;;8.27;3.15;;;;;;;;;;5043907;28;20029;-65
2022/04/28 07:30:56;;;;;;;6.97;3.17;;;;;;;;;;5035944;28;20033;-65
2022/04/28 07:33:21;;;;;;;5.75;2.83;;;;;;;;;;5033351;28;20060;-65
2022/04/28 07:35:47;;;;;;;4.75;3.00;;;;;;;;;;5038998;28;20496;-65
2022/04/28 07:38:13;;;;;;;186.43;15.13;;;;;;;;;;5030599;28;20029;-65
2022/04/28 07:40:38;;;;;;;9.88;4.30;;;;;;;;;;5039909;28;20032;-65
2022/04/28 07:43:05;;;;;;;10.85;3.70;;;;;;;;;;5038142;28;20056;-65
2022/04/28 07:45:31;;;;;;;88.13;9.43;;;;;;;;;;5036155;28;20478;-65
2022/04/28 07:47:57;;;;;;;12.63;3.45;;;;;;;;;;5039907;28;20401;-65
2022/04/28 07:50:23;;;;;;;11.05;2.97;;;;;;;;;;5036429;28;20025;-64
2022/04/28 07:52:49;;;;;;;7.07;3.15;;;;;;;;;;5039651;28;20032;-65
2022/04/28 07:55:15;;;;;;;4.25;3.13;;;;;;;;;;5033926;28;20402;-65
2022/04/28 07:57:41;;;;;;;5.18;2.70;;;;;;;;;;5038109;28;20024;-64
2022/04/28 08:00:08;;;;;;;9.05;2.80;;;;;;;;;;5038008;28;20032;-65
2022/04/28 08:02:38;;;;;;;4.78;2.63;;;;;;;;;;5031858;28;20076;-62
2022/04/28 08:05:05;;;;;;;4.35;2.75;;;;;;;;;;5039615;28;20504;-65
2022/04/28 08:07:34;;;;;;;9.70;2.72;;;;;;;;;;5035869;28;20030;-62
2022/04/28 08:10:00;;;;;;;5.78;2.80;;;;;;;;;;5032243;28;20079;-63
2022/04/28 08:12:26;;;;;;;4.07;3.33;;;;;;;;;;5037724;28;20425;-65
2022/04/28 08:14:52;;;;;;;8.02;3.78;;;;;;;;;;5034838;28;20490;-65
2022/04/28 08:17:18;;;;;;;6.00;3.72;;;;;;;;;;5033565;28;20025;-65
2022/04/28 08:19:44;;;;;;;5.63;3.38;;;;;;;;;;5038202;28;20079;-64
2022/04/28 08:22:10;;;;;;;6.68;2.90;;;;;;;;;;5034949;28;20025;-65
2022/04/28 08:24:36;;;;;;;6.00;3.42;;;;;;;;;;5035890;28;20560;-62
2022/04/28 08:27:02;;;;;;;4.60;3.15;;;;;;;;;;5033622;28;20490;-62
2022/04/28 08:29:28;;;;;;;6.68;3.00;;;;;;;;;;5035921;28;20067;-62
2022/04/28 08:31:54;;;;;;;11.52;4.25;;;;;;;;;;5038685;28;20036;-62
2022/04/28 08:34:21;;;;;;;15.90;6.10;;;;;;;;;;5042220;28;20033;-62
2022/04/28 08:36:48;;;;;;;16.90;7.72;;;;;;;;;;5031637;28;20022;-65
2022/04/28 08:39:14;;;;;;;16.60;8.30;;;;;;;;;;5033714;28;20068;-62
2022/04/28 08:41:45;;;;;;;12.57;6.22;;;;;;;;;;5034132;28;20832;-64
2022/04/28 08:44:18;;;;;;;16.25;7.45;;;;;;;;;;5033730;28;20119;-62
2022/04/28 08:46:52;;;;;;;15.40;8.15;;;;;;;;;;5040226;28;20038;-62
2022/04/28 08:49:42;;;;;;;21.02;8.63;;;;;;;;;;5043889;28;20033;-62
2022/04/28 08:52:10;;;;;;;16.60;6.78;;;;;;;;;;5039834;28;20040;-62
2022/04/28 08:54:39;;;;;;;9.80;5.30;;;;;;;;;;5034319;28;20136;-62
2022/04/28 08:57:05;;;;;;;14.30;5.13;;;;;;;;;;5040502;28;20099;-62
2022/04/28 08:59:31;;;;;;;16.88;5.60;;;;;;;;;;5034967;28;20033;-62
2022/04/28 09:01:57;;;;;;;9.02;4.88;;;;;;;;;;5035630;28;20394;-62
2022/04/28 09:04:23;;;;;;;11.55;5.03;;;;;;;;;;5042520;28;20025;-63
2022/04/28 09:06:52;;;;;;;12.27;5.60;;;;;;;;;;5040934;28;20025;-63
2022/04/28 09:09:18;;;;;;;6.57;4.40;;;;;;;;;;5040868;28;20025;-62
2022/04/28 09:11:46;;;;;;;7.95;4.10;;;;;;;;;;5035161;28;20039;-62
2022/04/28 09:14:15;;;;;;;10.57;4.18;;;;;;;;;;5039644;28;20029;-62
2022/04/28 09:16:47;;;;;;;7.05;4.10;;;;;;;;;;5042321;28;20025;-63
2022/04/28 09:19:17;;;;;;;9.68;4.55;;;;;;;;;;5038855;28;20037;-62
2022/04/28 09:21:43;;;;;;;8.32;4.20;;;;;;;;;;5044656;28;20057;-62
2022/04/28 09:24:10;;;;;;;13.73;4.47;;;;;;;;;;5039531;28;20677;-62
2022/04/28 09:26:37;;;;;;;10.18;5.15;;;;;;;;;;5034687;28;20091;-62
2022/04/28 09:29:04;;;;;;;12.77;4.78;;;;;;;;;;5039787;28;20040;-62
2022/04/28 09:31:34;;;;;;;14.70;5.43;;;;;;;;;;5038879;28;20846;-62
2022/04/28 09:34:11;;;;;;;8.15;4.28;;;;;;;;;;5043197;28;20481;-59
2022/04/28 09:36:39;;;;;;;9.88;4.60;;;;;;;;;;5039340;28;20033;-61
2022/04/28 09:39:06;;;;;;;10.60;5.35;;;;;;;;;;5036222;28;20033;-62
2022/04/28 09:44:21;;;;;;;16.50;4.70;;;;;;;;;;5037191;28;20033;-62
2022/04/28 09:46:48;;;;;;;42.50;7.15;;;;;;;;;;5043116;28;20036;-62
2022/04/28 09:49:20;;;;;;;37.00;5.63;;;;;;;;;;5032980;28;20068;-62
2022/04/28 09:51:46;;;;;;;18.95;4.63;;;;;;;;;;5036696;28;20482;-62
2022/04/28 09:54:14;;;;;;;8.88;4.10;;;;;;;;;;5071201;28;20060;-61
2022/04/28 09:56:42;;;;;;;14.55;5.43;;;;;;;;;;5035540;28;20474;-60
2022/04/28 09:59:11;;;;;;;23.63;5.13;;;;;;;;;;5034156;28;20037;-61
2022/04/28 10:01:38;;;;;;;24.52;4.85;;;;;;;;;;5040890;28;20510;-62
2022/04/28 10:04:05;;;;;;;20.15;4.60;;;;;;;;;;5036786;28;20068;-61
2022/04/28 10:06:34;;;;;;;7.95;3.60;;;;;;;;;;5041963;28;20021;-61
2022/04/28 10:09:09;;;;;;;4.85;3.75;;;;;;;;;;5035418;28;20035;-61
2022/04/28 10:11:36;;;;;;;8.32;3.85;;;;;;;;;;5035747;28;20029;-61
2022/04/28 10:14:02;;;;;;;6.50;3.55;;;;;;;;;;5035303;28;20502;-61
2022/04/28 10:16:28;;;;;;;6.03;3.45;;;;;;;;;;5035377;28;20033;-62
2022/04/28 10:19:08;;;;;;;5.20;3.13;;;;;;;;;;5036999;28;20056;-61
2022/04/28 10:21:44;;;;;;;4.95;2.85;;;;;;;;;;5038308;28;20048;-61
2022/04/28 10:32:51;;;;;;;5.80;2.30;;;;;;;;;;4976323;28;20042;-61
2022/04/28 10:35:38;;;;;;;3.13;2.53;;;;;;;;;;4978582;28;20096;-61
2022/04/28 10:38:32;;;;;;;7.03;2.80;;;;;;;;;;4980586;28;20077;-60
2022/04/28 10:41:02;;;;;;;5.20;2.60;;;;;;;;;;4980269;28;20485;-61
2022/04/28 10:43:28;;;;;;;9.65;2.70;;;;;;;;;;4985948;28;20097;-61
2022/04/28 10:45:56;;;;;;;3.67;2.42;;;;;;;;;;4983701;28;20442;-61
2022/04/28 10:48:32;;;;;;;3.47;2.50;;;;;;;;;;4983965;28;20067;-61
2022/04/28 10:51:10;;;;;;;3.45;2.20;;;;;;;;;;4979085;28;20411;-62
2022/04/28 10:53:58;;;;;;;3.65;2.40;;;;;;;;;;4982583;28;20126;-61
2022/04/28 10:56:25;;;;;;;5.60;2.38;;;;;;;;;;4979348;28;20069;-61
2022/04/28 10:58:57;;;;;;;6.68;2.60;;;;;;;;;;4983697;28;20538;-61
2022/04/28 11:01:26;;;;;;;;;;;;;;;;;;4982481;28;20034;-61
2022/04/28 11:04:03;;;;;;;4.18;2.25;;;;;;;;;;5005640;28;20301;-62
2022/04/28 11:06:37;;;;;;;6.45;2.72;;;;;;;;;;5040533;28;20041;-61
2022/04/28 11:09:05;;;;;;;5.70;2.45;;;;;;;;;;5034595;28;20398;-61
2022/04/28 11:11:43;;;;;;;7.07;2.55;;;;;;;;;;5035646;28;20026;-62
2022/04/28 11:14:09;;;;;;;5.38;2.22;;;;;;;;;;5032654;28;20572;-61
2022/04/28 11:16:35;;;;;;;14.00;2.53;;;;;;;;;;5034775;28;20052;-61
2022/04/28 11:19:01;;;;;;;5.88;2.70;;;;;;;;;;5039551;28;20603;-62
2022/04/28 11:21:28;;;;;;;4.78;2.40;;;;;;;;;;5040463;28;20085;-61
2022/04/28 11:23:55;;;;;;;12.20;2.80;;;;;;;;;;5038410;28;20059;-61
2022/04/28 11:26:26;;;;;;;4.72;2.53;;;;;;;;;;5035853;28;20435;-62
2022/04/28 11:28:53;;;;;;;6.97;2.60;;;;;;;;;;5034926;28;20036;-61
2022/04/28 11:31:19;;;;;;;4.57;2.40;;;;;;;;;;5041956;28;20393;-61
2022/04/28 11:33:49;;;;;;;5.72;2.50;;;;;;;;;;5040827;28;20028;-61
2022/04/28 11:36:28;;;;;;;4.75;2.80;;;;;;;;;;5035093;28;20036;-61
2022/04/28 11:39:01;;;;;;;4.55;2.40;;;;;;;;;;5039350;28;20044;-62
2022/04/28 11:41:42;;;;;;;7.72;2.67;;;;;;;;;;5041794;28;20504;-62
2022/04/28 11:44:13;;;;;;;3.75;2.38;;;;;;;;;;5035016;28;20036;-61
2022/04/28 11:46:45;;;;;;;4.30;2.38;;;;;;;;;;5034347;28;20041;-62
2022/04/28 11:49:11;;;;;;;5.95;2.45;;;;;;;;;;5031352;28;20029;-61
2022/04/28 11:51:37;;;;;;;11.25;3.17;;;;;;;;;;5041095;28;20520;-61
2022/04/28 11:54:16;;;;;;;4.38;2.50;;;;;;;;;;5031747;28;20061;-61
2022/04/28 11:56:42;;;;;;;6.68;2.40;;;;;;;;;;5032436;28;20099;-61
2022/04/28 11:59:10;;;;;;;7.18;2.63;;;;;;;;;;5034278;28;20029;-61
2022/04/28 12:01:36;;;;;;;6.82;2.75;;;;;;;;;;5034753;28;20039;-61
2022/04/28 12:04:02;;;;;;;5.45;2.60;;;;;;;;;;5036259;28;20045;-61
2022/04/28 12:06:29;;;;;;;7.05;2.53;;;;;;;;;;5034987;28;20029;-61
2022/04/28 12:08:57;;;;;;;6.47;2.35;;;;;;;;;;5039286;28;20082;-61
2022/04/28 12:14:23;;;;;;;10.05;2.47;;;;;;;;;;5032326;28;20955;-61
2022/04/28 12:19:50;;;;;;;5.35;2.30;;;;;;;;;;5033744;28;20017;-61
2022/04/28 12:22:42;;;;;;;6.38;2.15;;;;;;;;;;5038215;28;20516;-61
2022/04/28 12:25:15;;;;;;;3.20;2.30;;;;;;;;;;5037529;28;20041;-61
2022/04/28 12:27:50;;;;;;;4.97;2.42;;;;;;;;;;5046443;28;20036;-61
2022/04/28 12:30:18;;;;;;;6.05;2.53;;;;;;;;;;5070918;28;20485;-61
2022/04/28 12:32:48;;;;;;;2.88;2.28;;;;;;;;;;5043578;28;20040;-61
2022/04/28 12:35:23;;;;;;;5.82;2.50;;;;;;;;;;5038864;28;20044;-61
2022/04/28 12:38:00;;;;;;;7.15;2.33;;;;;;;;;;5041096;28;20052;-61
2022/04/28 12:40:26;;;;;;;7.45;2.50;;;;;;;;;;5037342;28;20064;-61
2022/04/28 12:42:54;;;;;;;5.00;2.55;;;;;;;;;;5054572;28;20045;-61
2022/04/28 12:45:40;;;;;;;6.68;2.28;;;;;;;;;;5039461;28;20037;-59
2022/04/28 12:48:21;;;;;;;4.85;2.30;;;;;;;;;;5042374;28;20087;-61
2022/04/28 12:50:48;;;;;;;7.93;2.25;;;;;;;;;;5038297;28;20033;-61
2022/04/28 12:53:32;;;;;;;6.78;2.10;;;;;;;;;;5038728;28;20116;-61
2022/04/28 12:56:10;;;;;;;5.63;2.30;;;;;;;;;;5052239;28;20021;-61
2022/04/28 12:58:40;;;;;;;5.57;2.05;;;;;;;;;;5038881;28;20034;-61
2022/04/28 13:01:14;;;;;;;3.92;2.05;;;;;;;;;;5038029;28;20060;-61
2022/04/28 13:03:41;;;;;;;3.00;2.17;;;;;;;;;;5044512;28;20036;-61
2022/04/28 13:06:08;;;;;;;4.88;2.50;;;;;;;;;;5037459;28;20028;-60
2022/04/28 13:08:34;;;;;;;3.00;2.20;;;;;;;;;;5040621;28;20063;-61
2022/04/28 13:11:01;;;;;;;2.90;2.10;;;;;;;;;;5036967;28;20072;-61
2022/04/28 13:13:28;;;;;;;6.35;2.60;;;;;;;;;;5042329;28;20063;-61
2022/04/28 13:15:54;;;;;;;4.72;1.77;;;;;;;;;;5036610;28;20033;-61
2022/04/28 13:18:20;;;;;;;3.50;2.20;;;;;;;;;;5037506;28;20058;-61
2022/04/28 13:20:46;;;;;;;3.33;2.10;;;;;;;;;;5039413;28;20033;-61
2022/04/28 13:23:11;;;;;;;2.63;2.17;;;;;;;;;;5038771;28;20032;-60
2022/04/28 13:25:37;;;;;;;3.97;2.17;;;;;;;;;;5037454;28;20128;-61
2022/04/28 13:28:03;;;;;;;4.03;2.10;;;;;;;;;;5038622;28;20029;-61
2022/04/28 13:30:30;;;;;;;3.45;2.00;;;;;;;;;;5036497;28;20040;-61
2022/04/28 13:32:55;;;;;;;7.78;2.33;;;;;;;;;;5040575;28;20063;-60
2022/04/28 13:35:21;;;;;;;3.30;2.10;;;;;;;;;;5038955;28;20079;-60
2022/04/28 13:37:47;;;;;;;4.60;2.50;;;;;;;;;;5041594;28;20025;-61
2022/04/28 13:40:12;;;;;;;8.73;2.20;;;;;;;;;;5040994;28;20032;-61
2022/04/28 13:42:38;;;;;;;6.18;2.10;;;;;;;;;;5039792;28;20049;-61
2022/04/28 13:45:04;;;;;;;3.90;1.83;;;;;;;;;;5037427;28;20131;-60
2022/04/28 13:47:30;;;;;;;2.28;1.83;;;;;;;;;;5038907;28;20033;-61
2022/04/28 13:49:56;;;;;;;8.52;2.00;;;;;;;;;;5041612;28;20566;-61
2022/04/28 13:52:22;;;;;;;2.42;1.98;;;;;;;;;;5041522;28;20044;-61
2022/04/28 13:54:48;;;;;;;4.93;2.10;;;;;;;;;;5035446;28;20568;-61
2022/04/28 13:57:13;;;;;;;4.22;2.35;;;;;;;;;;5042796;28;20084;-61
2022/04/28 13:59:40;;;;;;;3.78;2.00;;;;;;;;;;5039640;28;20159;-61
2022/04/28 14:02:07;;;;;;;4.15;1.85;;;;;;;;;;5032065;28;20026;-61
2022/04/28 14:04:33;;;;;;;5.45;2.00;;;;;;;;;;5036898;28;20049;-61
2022/04/28 14:06:59;;;;;;;4.35;2.42;;;;;;;;;;5038613;28;20395;-61
2022/04/28 14:09:24;;;;;;;10.35;1.90;;;;;;;;;;5039709;28;20390;-61
2022/04/28 14:11:51;;;;;;;2.95;1.95;;;;;;;;;;5036414;28;20025;-61
2022/04/28 14:14:17;;;;;;;5.95;2.15;;;;;;;;;;5036611;28;20044;-62
2022/04/28 14:16:43;;;;;;;7.43;2.17;;;;;;;;;;5036860;28;20074;-61
2022/04/28 14:19:08;;;;;;;6.93;2.03;;;;;;;;;;5042327;28;20029;-61
2022/04/28 14:21:36;;;;;;;7.75;2.13;;;;;;;;;;5039362;28;20030;-61
2022/04/28 14:24:01;;;;;;;2.92;1.75;;;;;;;;;;5037322;28;20029;-60
2022/04/28 14:26:27;;;;;;;2.58;1.83;;;;;;;;;;5036904;28;20108;-61
2022/04/28 14:28:53;;;;;;;8.40;2.00;;;;;;;;;;5043826;28;20432;-61
2022/04/28 14:31:19;;;;;;;7.65;2.10;;;;;;;;;;5038791;28;20411;-61
2022/04/28 14:33:45;;;;;;;6.60;1.77;;;;;;;;;;5040654;28;20118;-62
2022/04/28 14:36:11;;;;;;;5.78;1.83;;;;;;;;;;5042233;28;20067;-61
2022/04/28 14:38:37;;;;;;;3.25;2.00;;;;;;;;;;5034229;28;20394;-61
2022/04/28 14:41:03;;;;;;;6.40;1.80;;;;;;;;;;5037732;28;20028;-61
2022/04/28 14:43:28;;;;;;;5.55;1.75;;;;;;;;;;5039112;28;20041;-61
2022/04/28 14:45:55;;;;;;;2.40;1.90;;;;;;;;;;5039328;28;20025;-61
2022/04/28 14:48:21;;;;;;;4.15;1.88;;;;;;;;;;5037827;28;20410;-61
2022/04/28 14:53:34;;;;;;;2.55;1.90;;;;;;;;;;5037216;28;20529;-61
2022/04/28 14:56:00;;;;;;;5.35;1.90;;;;;;;;;;5044482;28;20037;-61
2022/04/28 14:58:26;;;;;;;2.70;2.00;;;;;;;;;;5037840;28;20033;-62
2022/04/28 15:00:52;;;;;;;5.45;2.00;;;;;;;;;;5038946;28;20114;-62
2022/04/28 15:03:18;;;;;;;3.30;1.88;;;;;;;;;;5039496;28;20048;-61
2022/04/28 15:05:45;;;;;;;2.33;2.05;;;;;;;;;;5035492;28;20467;-61
2022/04/28 15:08:11;;;;;;;4.60;2.45;;;;;;;;;;5033127;28;20032;-61
2022/04/28 15:10:39;;;;;;;3.00;2.08;;;;;;;;;;5043447;28;20471;-61
2022/04/28 15:13:06;;;;;;;2.70;2.10;;;;;;;;;;5036523;28;20033;-61
2022/04/28 15:15:35;;;;;;;3.67;1.92;;;;;;;;;;5038339;28;20403;-61
2022/04/28 15:18:02;;;;;;;4.45;1.92;;;;;;;;;;5034575;28;20132;-61
2022/04/28 15:20:28;;;;;;;4.95;2.03;;;;;;;;;;5039396;28;20609;-62